Latest Weather Observations for Adelaide Airport

IDS60901

Issued at 6:21 am CST Tuesday 23 July 2024 (issued every 10 minutes, with the page automatically refreshed every 10 minutes)

About weather observations | Map of Adelaide area stations | Latest observations for Adelaide area | Other Formats
Station Details ID: 023034 Name: ADELAIDE AIRPORT Lat: -34.95 Lon: 138.52 Height: 2.0 m
Data from the previous 72 hours. | See also: Recent months at Adelaide Airport
Date/Time
CST
Temp
°C
App
Temp
°C
Dew
Point
°C
Rel
Hum
%
Delta-T
°C
Wind Press
QNH
hPa
Press
MSL
hPa
Rain since
9am
mm
Dir  Spd
km/h
Gust
km/h
Spd
kts
Gust
kts
23/06:00am 8.6 3.7 2.0 63 2.7 NE 17 19 9 10 1022.1 1022.1 0.2
23/05:30am 8.6 3.7 2.2 64 2.7 NE 17 17 9 9 1021.8 1021.8 0.2
23/05:00am 7.8 3.3 1.9 66 2.4 NE 15 17 8 9 1021.6 1021.6 0.2
23/04:30am 8.4 3.9 2.2 65 2.6 NNE 15 17 8 9 1021.5 1021.5 0.2
23/04:00am 8.4 3.9 2.4 66 2.5 NNE 15 17 8 9 1021.5 1021.5 0.2
23/03:30am 6.4 2.3 2.1 74 1.7 NNE 13 15 7 8 1021.7 1021.7 0.2
23/03:00am 7.4 3.7 2.3 70 2.1 NE 11 13 6 7 1021.9 1021.9 0.2
23/02:30am 8.8 4.4 2.8 66 2.5 NNE 15 15 8 8 1022.2 1022.2 0.2
23/02:00am 9.2 4.1 3.2 66 2.6 NNE 19 22 10 12 1022.4 1022.4 0.2
23/01:30am 9.5 4.9 3.7 67 2.5 NNE 17 19 9 10 1022.6 1022.6 0.2
23/01:00am 9.3 5.5 3.7 68 2.4 NNE 13 15 7 8 1022.7 1022.7 0.2
23/12:30am 10.1 7.1 4.0 66 2.7 N 9 11 5 6 1022.9 1022.9 0.2
23/12:00am 10.4 5.6 4.5 67 2.6 NNE 19 24 10 13 1022.9 1022.9 0.2
 
Date/Time
CST
Temp
°C
App
Temp
°C
Dew
Point
°C
Rel
Hum
%
Delta-T
°C
Wind Press
QNH
hPa
Press
MSL
hPa
Rain since
9am
mm
Dir  Spd
km/h
Gust
km/h
Spd
kts
Gust
kts
22/11:30pm 10.7 6.3 4.8 67 2.7 NNE 17 20 9 11 1023.0 1023.0 0.2
22/11:00pm 10.5 6.2 5.3 70 2.4 NNE 17 19 9 10 1023.2 1023.2 0.2
22/10:30pm 10.7 6.5 5.9 72 2.2 NNE 17 20 9 11 1023.4 1023.4 0.2
22/10:00pm 10.9 6.8 6.3 73 2.2 NE 17 20 9 11 1023.5 1023.5 0.2
22/09:30pm 11.2 7.6 6.7 74 2.1 NE 15 17 8 9 1023.6 1023.6 0.2
22/09:00pm 11.5 8.3 6.8 73 2.2 NE 13 15 7 8 1023.6 1023.6 0.2
22/08:30pm 11.8 8.6 6.9 72 2.3 NE 13 17 7 9 1023.6 1023.6 0.2
22/08:00pm 12.3 9.6 7.2 71 2.5 NNE 11 13 6 7 1023.5 1023.5 0.2
22/07:30pm 13.1 10.0 7.3 68 2.8 N 13 17 7 9 1023.5 1023.5 0.2
22/07:00pm 13.5 10.5 7.5 67 2.9 N 13 15 7 8 1023.3 1023.3 0.2
22/06:30pm 15.2 11.9 6.5 56 4.2 NNW 13 15 7 8 1023.2 1023.2 0.2
22/06:00pm 15.5 12.3 6.8 56 4.2 NNW 13 19 7 10 1023.1 1023.1 0.2
22/05:30pm 16.0 12.0 6.7 54 4.5 NNW 17 20 9 11 1023.0 1023.0 0.2
22/05:00pm 16.5 12.9 6.6 52 4.9 NNW 15 20 8 11 1022.9 1022.9 0.2
22/04:30pm 16.6 13.2 7.5 55 4.5 NNW 15 20 8 11 1022.9 1022.9 0.2
22/04:00pm 17.1 12.9 7.5 53 4.8 NNW 19 26 10 14 1022.9 1022.9 0.2
22/03:30pm 17.2 12.1 7.5 53 4.9 NNW 24 30 13 16 1022.8 1022.8 0.2
22/03:00pm 17.0 11.3 8.4 57 4.4 NNW 28 35 15 19 1022.9 1022.9 0.2
22/02:30pm 16.9 11.0 9.1 60 4.0 NNW 30 35 16 19 1023.0 1023.0 0.2
22/02:00pm 16.3 10.8 9.0 62 3.8 NNW 28 35 15 19 1023.0 1023.0 0.2
22/01:30pm 16.3 10.9 9.5 64 3.5 NNW 28 35 15 19 1023.2 1023.2 0.0
22/01:00pm 15.4 9.8 8.9 65 3.3 NNW 28 35 15 19 1023.7 1023.7 0.0
22/12:30pm 14.9 9.3 8.8 67 3.1 NNW 28 35 15 19 1024.1 1024.1 0.0
22/12:00pm 14.6 9.4 9.0 69 2.8 NNW 26 32 14 17 1024.4 1024.4 0.0
22/11:30am 14.5 10.4 8.5 67 3.0 NNW 20 32 11 17 1025.0 1025.0 0.0
22/11:00am 13.9 8.9 8.1 68 2.9 N 24 33 13 18 1025.2 1025.2 0.0
22/10:30am 13.2 9.8 7.6 69 2.7 N 15 20 8 11 1025.1 1025.1 0.0
22/10:00am 13.4 10.4 7.8 69 2.8 NNE 13 17 7 9 1025.1 1025.1 0.0
22/09:30am 12.5 9.1 7.6 72 2.4 NE 15 19 8 10 1025.0 1025.0 0.0
22/09:00am 10.9 7.7 7.0 77 1.8 NNE 13 15 7 8 1024.8 1024.8 0.0
22/08:30am 10.4 7.3 7.1 80 1.6 NE 13 17 7 9 1024.5 1024.5 0.0
22/08:00am 10.4 7.3 7.3 81 1.5 NE 13 17 7 9 1024.2 1024.2 0.0
22/07:30am 9.7 6.5 6.8 82 1.4 NE 13 17 7 9 1024.1 1024.1 0.0
22/07:00am 9.8 6.3 7.1 83 1.3 NNE 15 17 8 9 1023.7 1023.7 0.0
22/06:30am 10.0 6.1 6.9 81 1.5 NNE 17 20 9 11 1023.5 1023.5 0.0
22/06:00am 10.0 6.9 7.1 82 1.4 NE 13 19 7 10 1023.3 1023.3 0.0
22/05:30am 10.5 7.9 7.7 83 1.3 NE 11 15 6 8 1023.3 1023.3 0.0
22/05:00am 10.5 7.5 7.6 82 1.4 NNE 13 17 7 9 1022.8 1022.8 0.0
22/04:30am 11.0 7.7 7.9 81 1.5 NNE 15 17 8 9 1022.4 1022.4 0.0
22/04:00am 12.7 9.4 8.2 74 2.2 N 15 20 8 11 1022.3 1022.3 0.0
22/03:30am 13.0 9.1 8.5 74 2.2 NNW 19 26 10 14 1022.3 1022.3 0.0
22/03:00am 13.2 9.3 8.5 73 2.3 NNW 19 28 10 15 1022.3 1022.3 0.0
22/02:30am 13.4 8.8 8.3 71 2.5 NW 22 32 12 17 1022.5 1022.5 0.0
22/02:00am 13.5 9.0 8.4 71 2.5 NW 22 32 12 17 1022.2 1022.2 0.0
22/01:30am 13.7 8.8 8.5 71 2.6 NW 24 32 13 17 1022.3 1022.3 0.0
22/01:00am 13.7 8.8 8.5 71 2.6 NNW 24 30 13 16 1022.1 1022.1 0.0
22/12:30am 13.8 9.0 8.8 72 2.5 NNW 24 32 13 17 1022.3 1022.3 0.0
22/12:00am 13.5 9.2 9.4 76 2.1 NNW 22 30 12 16 1022.3 1022.3 0.0
 
Date/Time
CST
Temp
°C
App
Temp
°C
Dew
Point
°C
Rel
Hum
%
Delta-T
°C
Wind Press
QNH
hPa
Press
MSL
hPa
Rain since
9am
mm
Dir  Spd
km/h
Gust
km/h
Spd
kts
Gust
kts
21/11:30pm 13.1 9.8 9.5 79 1.8 NNW 17 22 9 12 1022.4 1022.4 0.0
21/11:00pm 13.2 8.9 9.5 78 1.9 NNW 22 32 12 17 1022.4 1022.4 0.0
21/10:30pm 13.9 9.2 9.3 74 2.3 NNW 24 32 13 17 1022.2 1022.2 0.0
21/10:00pm 13.8 9.2 9.6 76 2.2 NNW 24 32 13 17 1022.3 1022.3 0.0
21/09:30pm 14.0 8.6 9.4 74 2.3 NNW 28 35 15 19 1022.2 1022.2 0.0
21/09:00pm 14.1 9.5 9.5 74 2.3 NNW 24 32 13 17 1022.2 1022.2 0.0
21/08:30pm 14.2 10.3 9.4 73 2.4 NNW 20 28 11 15 1022.0 1022.0 0.0
21/08:00pm 14.3 10.7 9.7 74 2.4 NNW 19 28 10 15 1021.9 1021.9 0.0
21/07:30pm 13.6 11.4 10.8 83 1.5 N 13 17 7 9 1021.9 1021.9 0.0
21/07:00pm 13.3 11.5 11.0 86 1.2 N 11 13 6 7 1021.7 1021.7 0.0
21/06:30pm 13.5 11.8 11.2 86 1.2 NNW 11 15 6 8 1021.6 1021.6 0.0
21/06:00pm 13.5 10.1 11.2 86 1.2 NW 20 26 11 14 1021.5 1021.5 0.0
21/05:30pm 13.4 8.2 10.4 82 1.6 NW 28 39 15 21 1021.4 1021.4 0.0
21/05:00pm 14.3 10.8 10.9 80 1.8 NW 20 28 11 15 1021.4 1021.4 0.0
21/04:30pm 14.6 10.3 10.8 78 2.0 NW 24 35 13 19 1021.0 1021.0 0.0
21/04:00pm 14.5 10.3 11.1 80 1.8 NW 24 30 13 16 1020.9 1020.9 0.0
21/03:30pm 14.5 10.4 11.3 81 1.7 NW 24 33 13 18 1020.9 1020.9 0.0
21/03:00pm 14.4 9.8 11.0 80 1.8 NW 26 32 14 17 1020.8 1020.8 0.0
21/02:30pm 14.4 10.2 11.2 81 1.7 NW 24 32 13 17 1020.6 1020.6 0.0
21/02:00pm 15.1 10.1 11.1 77 2.1 NNW 28 35 15 19 1020.6 1020.6 0.0
21/01:30pm 14.6 8.9 11.0 79 1.9 NNW 32 39 17 21 1020.8 1020.8 0.0
21/01:00pm 14.2 8.4 10.8 80 1.8 NNW 32 39 17 21 1021.1 1021.1 0.0
21/12:30pm 14.3 8.8 10.7 79 1.9 NNW 30 37 16 20 1021.4 1021.4 0.0
21/12:00pm 14.2 8.1 10.6 79 1.9 NNW 33 41 18 22 1021.7 1021.7 0.0
21/11:30am 13.3 7.8 10.5 83 1.5 NNW 30 39 16 21 1022.0 1022.0 0.0
21/11:21am 13.1 7.6 10.6 85 1.3 NNW 30 37 16 20 1022.1 1022.1 0.0
21/11:00am 13.4 8.2 10.4 82 1.6 NNW 28 37 15 20 1022.3 1022.3 0.0
21/10:30am 13.2 7.6 10.2 82 1.5 NNW 30 41 16 22 1022.3 1022.3 0.0
21/10:00am 12.7 9.0 10.2 85 1.3 N 20 30 11 16 1022.2 1022.2 0.0
21/09:30am 12.7 9.0 10.2 85 1.3 N 20 33 11 18 1022.0 1022.0 0.0
21/09:00am 12.2 8.2 10.4 89 0.9 N 22 32 12 17 1021.7 1021.7 0.6
21/08:30am 12.1 8.7 10.5 90 0.8 N 19 24 10 13 1021.5 1021.5 0.6
21/08:00am 12.1 8.7 10.5 90 0.8 N 19 28 10 15 1021.4 1021.4 0.6
21/07:30am 12.1 9.4 10.5 90 0.8 N 15 19 8 10 1021.3 1021.3 0.6
21/07:00am 12.6 9.3 11.0 90 0.8 NNW 19 28 10 15 1021.0 1021.0 0.6
21/06:30am 12.6 9.3 11.0 90 0.8 NNW 19 26 10 14 1020.7 1020.7 0.6
21/06:00am 12.6 9.4 11.2 91 0.7 NNW 19 24 10 13 1020.4 1020.4 0.6
21/05:30am 12.5 8.7 11.1 91 0.7 NW 22 32 12 17 1020.3 1020.3 0.6
21/05:00am 12.4 9.5 11.1 92 0.7 NW 17 22 9 12 1020.0 1020.0 0.6
21/04:30am 12.4 9.1 11.0 91 0.7 NW 19 26 10 14 1020.0 1020.0 0.6
21/04:23am 12.4 9.1 11.0 91 0.7 NW 19 26 10 14 1020.0 1020.0 0.6
21/04:00am 12.5 9.1 11.1 91 0.7 NW 20 28 11 15 1020.0 1020.0 0.6
21/03:30am 12.6 9.4 11.2 91 0.7 NW 19 28 10 15 1020.0 1020.0 0.6
21/03:00am 12.5 9.3 11.1 91 0.7 NW 19 26 10 14 1020.3 1020.3 0.6
21/02:30am 12.2 9.2 10.8 91 0.7 NNW 17 26 9 14 1020.4 1020.4 0.6
21/02:00am 12.2 8.7 10.8 91 0.7 NNW 20 30 11 16 1020.5 1020.5 0.6
21/01:30am 12.5 9.6 10.9 90 0.8 NNW 17 22 9 12 1020.7 1020.7 0.6
21/01:00am 12.4 9.4 10.6 89 0.9 NW 17 24 9 13 1020.6 1020.6 0.6
21/12:30am 12.1 10.6 10.5 90 0.8 NNE 9 11 5 6 1020.8 1020.8 0.6
21/12:00am 12.1 10.5 10.3 89 0.9 N 9 15 5 8 1020.9 1020.9 0.6
 
Date/Time
CST
Temp
°C
App
Temp
°C
Dew
Point
°C
Rel
Hum
%
Delta-T
°C
Wind Press
QNH
hPa
Press
MSL
hPa
Rain since
9am
mm
Dir  Spd
km/h
Gust
km/h
Spd
kts
Gust
kts
20/11:30pm 12.6 9.6 10.7 88 1.0 NNW 17 20 9 11 1020.8 1020.8 0.6
20/11:00pm 12.4 9.8 10.6 89 0.9 NW 15 19 8 10 1020.9 1020.9 0.6
20/10:30pm 12.3 9.2 10.2 87 1.1 NW 17 24 9 13 1020.7 1020.7 0.6
20/10:00pm 12.4 8.7 10.0 85 1.2 NW 20 26 11 14 1020.6 1020.6 0.6
20/09:30pm 12.7 9.2 10.2 85 1.3 WNW 19 26 10 14 1020.3 1020.3 0.6
20/09:00pm 12.4 10.1 10.3 87 1.1 NW 13 17 7 9 1020.2 1020.2 0.6
20/08:30pm 12.4 9.7 10.3 87 1.1 NW 15 17 8 9 1020.0 1020.0 0.6
20/08:00pm 12.2 10.1 9.9 86 1.2 NW 11 13 6 7 1019.8 1019.8 0.6
20/07:30pm 12.6 10.8 9.6 82 1.5 WNW 9 13 5 7 1019.6 1019.6 0.6
20/07:00pm 12.7 10.1 9.5 81 1.6 W 13 17 7 9 1019.3 1019.3 0.6
20/06:30pm 12.9 10.3 9.4 79 1.8 WNW 13 17 7 9 1019.1 1019.1 0.6
20/06:00pm 13.1 9.7 9.0 76 2.1 WSW 17 24 9 13 1018.7 1018.7 0.6
20/05:30pm 13.6 9.3 9.5 76 2.1 W 22 30 12 16 1018.4 1018.4 0.6
20/05:00pm 13.3 10.0 9.5 78 1.9 WSW 17 24 9 13 1018.1 1018.1 0.6
20/04:30pm 13.8 9.9 9.5 75 2.2 WSW 20 30 11 16 1017.8 1017.8 0.6
20/04:00pm 13.9 9.2 9.3 74 2.3 WSW 24 33 13 18 1017.5 1017.5 0.6
20/03:30pm 14.7 11.0 10.1 74 2.4 W 20 28 11 15 1017.3 1017.3 0.6
20/03:00pm 14.4 9.9 10.2 76 2.2 WNW 24 28 13 15 1016.8 1016.8 0.6
20/02:30pm 14.9 10.9 10.3 74 2.4 W 22 30 12 16 1016.6 1016.6 0.6
20/02:00pm 13.9 8.6 8.5 70 2.7 WSW 26 32 14 17 1016.4 1016.4 0.6
20/01:30pm 14.2 9.4 9.0 71 2.6 WSW 24 32 13 17 1016.2 1016.2 0.6
20/01:00pm 14.5 9.4 9.1 70 2.8 WSW 26 32 14 17 1016.2 1016.2 0.6
20/12:30pm 14.8 9.4 9.4 70 2.8 WSW 28 37 15 20 1016.3 1016.3 0.6
20/12:00pm 13.9 8.2 9.9 77 2.1 W 30 41 16 22 1016.5 1016.5 0.6
20/11:30am 14.0 8.5 9.2 73 2.4 WNW 28 39 15 21 1016.5 1016.5 0.6
20/11:00am 12.9 9.1 9.9 82 1.5 WSW 20 30 11 16 1016.5 1016.5 0.6
20/10:38am 11.9 6.2 9.8 87 1.1 WSW 30 41 16 22 1016.4 1016.4 0.6
20/10:30am 11.4 5.9 9.0 85 1.2 W 28 44 15 24 1016.3 1016.3 0.6
20/10:27am 11.6 6.8 9.0 84 1.3 W 24 44 13 24 1016.3 1016.3 0.6
20/10:22am 13.0 9.0 9.1 77 2.0 W 20 28 11 15 1016.1 1016.1 0.0
20/10:00am 13.3 6.9 8.4 72 2.4 WSW 32 41 17 22 1016.0 1016.0 0.0
20/09:30am 13.1 6.3 7.1 67 2.9 WSW 32 46 17 25 1015.3 1015.3 0.0
20/09:00am 12.4 5.4 6.9 69 2.6 WSW 33 43 18 23 1014.8 1014.8 9.0
20/08:32am 12.5 5.0 6.1 65 3.0 SW 35 54 19 29 1014.3 1014.3 9.0
20/08:30am 12.5 5.0 6.3 66 2.9 SW 35 46 19 25 1014.3 1014.3 9.0
20/08:09am 12.6 3.9 6.2 65 3.0 SW 41 59 22 32 1014.0 1014.0 9.0
20/08:00am 12.7 2.9 5.4 61 3.4 WSW 46 63 25 34 1013.8 1013.8 9.0
20/07:33am 12.6 3.3 5.1 60 3.5 WSW 43 61 23 33 1013.2 1013.2 9.0
20/07:30am 12.4 2.6 5.1 61 3.4 WSW 46 61 25 33 1013.1 1013.1 9.0
20/07:01am 12.3 3.1 5.5 63 3.2 WSW 43 61 23 33 1012.2 1012.2 9.0
20/07:00am 12.3 3.2 5.7 64 3.1 WSW 43 57 23 31 1012.2 1012.2 9.0
20/06:31am 11.0 1.6 7.3 78 1.8 WSW 46 69 25 37 1011.2 1011.2 9.0
20/06:30am 10.9 1.5 7.2 78 1.8 WSW 46 63 25 34 1011.3 1011.3 9.0

Latest Capital City Observations: Canberra | Sydney | Melbourne | Brisbane | Adelaide | Perth | Hobart | Darwin

Other formats

Comma delimited format used in spreadsheet applications
http://www.bom.gov.au/fwo/IDS60901/IDS60901.94672.axf

JavaScript Object Notation format (JSON) in row-major order
http://www.bom.gov.au/fwo/IDS60901/IDS60901.94672.json

Data quality

Most of these data are generated automatically and are frequently updated. Quality checks on data are not normally performed. It is possible for incorrect values to appear. Refer to information at About Latest Weather Observations and please check the disclaimer before using these data.